sensor_id;sensor_type;location;lat;lon;timestamp;pressure;altitude;pressure_sealevel;temperature;humidity
12763;BME280;6445;52.490;13.378;2023-06-26T00:00:11;-12695.97;;;-146.10;100.00
12763;BME280;6445;52.490;13.378;2023-06-26T00:02:37;-12695.97;;;-146.10;100.00
12763;BME280;6445;52.490;13.378;2023-06-26T00:05:02;-12695.97;;;-146.10;100.00
12763;BME280;6445;52.490;13.378;2023-06-26T00:07:28;-12695.97;;;-146.10;100.00
12763;BME280;6445;52.490;13.378;2023-06-26T00:09:54;-12695.97;;;-146.10;100.00
12763;BME280;6445;52.490;13.378;2023-06-26T00:12:19;-12695.97;;;-146.10;100.00
12763;BME280;6445;52.490;13.378;2023-06-26T00:14:44;-12695.97;;;-146.10;100.00
12763;BME280;6445;52.490;13.378;2023-06-26T00:17:11;-12695.97;;;-146.10;100.00
12763;BME280;6445;52.490;13.378;2023-06-26T00:19:36;-12695.97;;;-146.10;100.00
12763;BME280;6445;52.490;13.378;2023-06-26T00:22:01;-12695.97;;;-146.10;100.00
12763;BME280;6445;52.490;13.378;2023-06-26T00:24:27;-12695.97;;;-146.10;100.00
12763;BME280;6445;52.490;13.378;2023-06-26T00:26:52;-12695.97;;;-146.10;100.00
12763;BME280;6445;52.490;13.378;2023-06-26T00:29:17;-12695.97;;;-146.10;100.00
12763;BME280;6445;52.490;13.378;2023-06-26T00:31:43;-12695.97;;;-146.10;100.00
12763;BME280;6445;52.490;13.378;2023-06-26T00:34:08;-12695.97;;;-146.10;100.00
12763;BME280;6445;52.490;13.378;2023-06-26T00:36:34;-12695.97;;;-146.10;100.00
12763;BME280;6445;52.490;13.378;2023-06-26T00:38:59;-12695.97;;;-146.10;100.00
12763;BME280;6445;52.490;13.378;2023-06-26T00:41:24;-12695.97;;;-146.10;100.00
12763;BME280;6445;52.490;13.378;2023-06-26T00:43:49;-12695.97;;;-146.10;100.00
12763;BME280;6445;52.490;13.378;2023-06-26T00:46:15;-12695.97;;;-146.10;100.00
12763;BME280;6445;52.490;13.378;2023-06-26T00:48:42;-12695.97;;;-146.10;100.00
12763;BME280;6445;52.490;13.378;2023-06-26T00:51:08;-12695.97;;;-146.10;100.00
12763;BME280;6445;52.490;13.378;2023-06-26T00:53:34;-12695.97;;;-146.10;100.00
12763;BME280;6445;52.490;13.378;2023-06-26T00:55:59;-12695.97;;;-146.10;100.00
12763;BME280;6445;52.490;13.378;2023-06-26T00:58:25;-12695.97;;;-146.10;100.00
12763;BME280;6445;52.490;13.378;2023-06-26T01:00:51;-12695.97;;;-146.10;100.00
12763;BME280;6445;52.490;13.378;2023-06-26T01:03:16;-12695.97;;;-146.10;100.00
12763;BME280;6445;52.490;13.378;2023-06-26T01:05:42;-12695.97;;;-146.10;100.00
12763;BME280;6445;52.490;13.378;2023-06-26T01:08:11;-12695.97;;;-146.10;100.00
12763;BME280;6445;52.490;13.378;2023-06-26T01:10:37;-12695.97;;;-146.10;100.00
12763;BME280;6445;52.490;13.378;2023-06-26T01:13:03;-12695.97;;;-146.10;100.00
12763;BME280;6445;52.490;13.378;2023-06-26T01:15:28;-12695.97;;;-146.10;100.00
12763;BME280;6445;52.490;13.378;2023-06-26T01:17:54;-12695.97;;;-146.10;100.00
12763;BME280;6445;52.490;13.378;2023-06-26T01:20:20;-12695.97;;;-146.10;100.00
12763;BME280;6445;52.490;13.378;2023-06-26T01:28:33;-12695.97;;;-146.10;100.00
12763;BME280;6445;52.490;13.378;2023-06-26T01:31:00;-12695.97;;;-146.10;100.00
12763;BME280;6445;52.490;13.378;2023-06-26T01:33:26;-12695.97;;;-146.10;100.00
12763;BME280;6445;52.490;13.378;2023-06-26T01:35:52;-12695.97;;;-146.10;100.00
12763;BME280;6445;52.490;13.378;2023-06-26T01:38:19;-12695.97;;;-146.10;100.00
12763;BME280;6445;52.490;13.378;2023-06-26T01:40:45;-12695.97;;;-146.10;100.00
12763;BME280;6445;52.490;13.378;2023-06-26T01:43:18;-12695.97;;;-146.10;100.00
12763;BME280;6445;52.490;13.378;2023-06-26T01:45:48;-12695.97;;;-146.10;100.00
12763;BME280;6445;52.490;13.378;2023-06-26T01:48:16;-12695.97;;;-146.10;100.00
12763;BME280;6445;52.490;13.378;2023-06-26T01:50:45;-12695.97;;;-146.10;100.00
12763;BME280;6445;52.490;13.378;2023-06-26T01:53:16;-12695.97;;;-146.10;100.00
12763;BME280;6445;52.490;13.378;2023-06-26T01:55:44;-12695.97;;;-146.10;100.00
12763;BME280;6445;52.490;13.378;2023-06-26T01:58:13;-12695.97;;;-146.10;100.00
12763;BME280;6445;52.490;13.378;2023-06-26T02:00:40;-12695.97;;;-146.10;100.00
12763;BME280;6445;52.490;13.378;2023-06-26T02:03:05;-12695.97;;;-146.10;100.00
12763;BME280;6445;52.490;13.378;2023-06-26T02:05:31;-12695.97;;;-146.10;100.00
12763;BME280;6445;52.490;13.378;2023-06-26T02:07:57;-12695.97;;;-146.10;100.00
12763;BME280;6445;52.490;13.378;2023-06-26T02:10:22;-12695.97;;;-146.10;100.00
12763;BME280;6445;52.490;13.378;2023-06-26T02:12:47;-12695.97;;;-146.10;100.00
12763;BME280;6445;52.490;13.378;2023-06-26T02:15:12;-12695.97;;;-146.10;100.00
12763;BME280;6445;52.490;13.378;2023-06-26T02:17:38;-12695.97;;;-146.10;100.00
12763;BME280;6445;52.490;13.378;2023-06-26T02:20:03;-12695.97;;;-146.10;100.00
12763;BME280;6445;52.490;13.378;2023-06-26T02:22:29;-12695.97;;;-146.10;100.00
12763;BME280;6445;52.490;13.378;2023-06-26T02:24:54;-12695.97;;;-146.10;100.00
12763;BME280;6445;52.490;13.378;2023-06-26T02:27:19;-12695.97;;;-146.10;100.00
12763;BME280;6445;52.490;13.378;2023-06-26T02:29:45;-12695.97;;;-146.10;100.00
12763;BME280;6445;52.490;13.378;2023-06-26T02:32:10;-12695.97;;;-146.10;100.00
12763;BME280;6445;52.490;13.378;2023-06-26T02:34:36;-12695.97;;;-146.10;100.00
12763;BME280;6445;52.490;13.378;2023-06-26T02:37:01;-12695.97;;;-146.10;100.00
12763;BME280;6445;52.490;13.378;2023-06-26T02:39:27;-12695.97;;;-146.10;100.00
12763;BME280;6445;52.490;13.378;2023-06-26T02:41:52;-12695.97;;;-146.10;100.00
12763;BME280;6445;52.490;13.378;2023-06-26T02:44:18;-12695.97;;;-146.10;100.00
12763;BME280;6445;52.490;13.378;2023-06-26T02:46:43;-12695.97;;;-146.10;100.00
12763;BME280;6445;52.490;13.378;2023-06-26T02:49:08;-12695.97;;;-146.10;100.00
12763;BME280;6445;52.490;13.378;2023-06-26T02:51:33;-12695.97;;;-146.10;100.00
12763;BME280;6445;52.490;13.378;2023-06-26T02:53:59;-12695.97;;;-146.10;100.00
12763;BME280;6445;52.490;13.378;2023-06-26T02:56:25;-12695.97;;;-146.10;100.00
12763;BME280;6445;52.490;13.378;2023-06-26T02:58:54;-12695.97;;;-146.10;100.00
12763;BME280;6445;52.490;13.378;2023-06-26T03:01:20;-12695.97;;;-146.10;100.00
12763;BME280;6445;52.490;13.378;2023-06-26T03:03:45;-12695.97;;;-146.10;100.00
12763;BME280;6445;52.490;13.378;2023-06-26T03:06:12;-12695.97;;;-146.10;100.00
12763;BME280;6445;52.490;13.378;2023-06-26T03:08:38;-12695.97;;;-146.10;100.00
12763;BME280;6445;52.490;13.378;2023-06-26T03:11:06;-12695.97;;;-146.10;100.00
12763;BME280;6445;52.490;13.378;2023-06-26T03:13:33;-12695.97;;;-146.10;100.00
12763;BME280;6445;52.490;13.378;2023-06-26T03:15:59;-12695.97;;;-146.10;100.00
12763;BME280;6445;52.490;13.378;2023-06-26T03:18:24;-12695.97;;;-146.10;100.00
12763;BME280;6445;52.490;13.378;2023-06-26T03:20:49;-12695.97;;;-146.10;100.00
12763;BME280;6445;52.490;13.378;2023-06-26T03:23:15;-12695.97;;;-146.10;100.00
12763;BME280;6445;52.490;13.378;2023-06-26T03:25:40;-12695.97;;;-146.10;100.00
12763;BME280;6445;52.490;13.378;2023-06-26T03:28:05;-12695.97;;;-146.10;100.00
12763;BME280;6445;52.490;13.378;2023-06-26T03:30:30;-12695.97;;;-146.10;100.00
12763;BME280;6445;52.490;13.378;2023-06-26T03:32:56;-12695.97;;;-146.10;100.00
12763;BME280;6445;52.490;13.378;2023-06-26T03:35:21;-12695.97;;;-146.10;100.00
12763;BME280;6445;52.490;13.378;2023-06-26T03:37:46;-12695.97;;;-146.10;100.00
12763;BME280;6445;52.490;13.378;2023-06-26T03:40:11;-12695.97;;;-146.10;100.00
12763;BME280;6445;52.490;13.378;2023-06-26T03:42:37;-12695.97;;;-146.10;100.00
12763;BME280;6445;52.490;13.378;2023-06-26T03:45:02;-12695.97;;;-146.10;100.00
12763;BME280;6445;52.490;13.378;2023-06-26T03:47:27;-12695.97;;;-146.10;100.00
12763;BME280;6445;52.490;13.378;2023-06-26T03:49:52;-12695.97;;;-146.10;100.00
12763;BME280;6445;52.490;13.378;2023-06-26T03:52:18;-12695.97;;;-146.10;100.00
12763;BME280;6445;52.490;13.378;2023-06-26T03:54:43;-12695.97;;;-146.10;100.00
12763;BME280;6445;52.490;13.378;2023-06-26T03:57:08;-12695.97;;;-146.10;100.00
12763;BME280;6445;52.490;13.378;2023-06-26T03:59:33;-12695.97;;;-146.10;100.00
12763;BME280;6445;52.490;13.378;2023-06-26T04:01:59;-12695.97;;;-146.10;100.00
12763;BME280;6445;52.490;13.378;2023-06-26T04:04:24;-12695.97;;;-146.10;100.00
12763;BME280;6445;52.490;13.378;2023-06-26T04:06:49;-12695.97;;;-146.10;100.00
12763;BME280;6445;52.490;13.378;2023-06-26T04:09:15;-12695.97;;;-146.10;100.00
12763;BME280;6445;52.490;13.378;2023-06-26T04:11:40;-12695.97;;;-146.10;100.00
12763;BME280;6445;52.490;13.378;2023-06-26T04:14:06;-12694.50;;;-146.10;100.00
12763;BME280;6445;52.490;13.378;2023-06-26T04:16:31;-12442.63;;;-146.10;100.00
12763;BME280;6445;52.490;13.378;2023-06-26T04:18:56;-12694.50;;;-146.10;100.00
12763;BME280;6445;52.490;13.378;2023-06-26T04:21:22;-12442.63;;;-146.10;100.00
12763;BME280;6445;52.490;13.378;2023-06-26T04:23:50;-12442.63;;;-146.10;100.00
12763;BME280;6445;52.490;13.378;2023-06-26T04:26:15;-11183.13;;;-146.10;100.00
12763;BME280;6445;52.490;13.378;2023-06-26T04:28:40;-9419.13;;;-146.10;100.00
12763;BME280;6445;52.490;13.378;2023-06-26T04:31:06;-9419.13;;;-146.10;100.00
12763;BME280;6445;52.490;13.378;2023-06-26T04:33:31;-8662.91;;;-146.10;100.00
12763;BME280;6445;52.490;13.378;2023-06-26T04:35:57;-6897.75;;;-146.10;100.00
12763;BME280;6445;52.490;13.378;2023-06-26T04:38:22;-9419.13;;;-146.10;100.00
12763;BME280;6445;52.490;13.378;2023-06-26T04:40:48;-9923.22;;;-146.10;100.00
12763;BME280;6445;52.490;13.378;2023-06-26T04:43:14;-9419.13;;;-146.10;100.00
12763;BME280;6445;52.490;13.378;2023-06-26T04:45:39;-9923.22;;;-146.10;100.00
12763;BME280;6445;52.490;13.378;2023-06-26T04:48:05;-4122.28;;;-146.10;100.00
12763;BME280;6445;52.490;13.378;2023-06-26T04:50:31;-7906.50;;;-146.10;100.00
12763;BME280;6445;52.490;13.378;2023-06-26T04:52:56;-4879.41;;;-146.10;100.00
12763;BME280;6445;52.490;13.378;2023-06-26T04:55:24;-3112.53;;;-146.10;100.00
12763;BME280;6445;52.490;13.378;2023-06-26T04:57:49;-2860.03;;;-146.10;100.00
12763;BME280;6445;52.490;13.378;2023-06-26T05:00:15;-4122.28;;;-146.10;100.00
12763;BME280;6445;52.490;13.378;2023-06-26T05:02:40;-3869.88;;;-146.10;100.00
12763;BME280;6445;52.490;13.378;2023-06-26T05:05:06;-586.97;;;-146.10;100.00
12763;BME280;6445;52.490;13.378;2023-06-26T05:07:31;4216.13;;;-146.10;100.00
12763;BME280;6445;52.490;13.378;2023-06-26T05:09:56;5987.19;;;-146.10;100.00
12763;BME280;6445;52.490;13.378;2023-06-26T05:12:21;10038.41;;;-146.10;100.00
12763;BME280;6445;52.490;13.378;2023-06-26T05:14:47;11812.16;;;-146.10;100.00
12763;BME280;6445;52.490;13.378;2023-06-26T05:17:14;20439.00;;;-146.10;100.00
12763;BME280;6445;52.490;13.378;2023-06-26T05:19:39;14854.75;;;-146.10;100.00
12763;BME280;6445;52.490;13.378;2023-06-26T05:22:05;15869.47;;;-146.10;100.00
12763;BME280;6445;52.490;13.378;2023-06-26T05:24:34;17392.06;;;-146.10;100.00
12763;BME280;6445;52.490;13.378;2023-06-26T05:27:00;17899.72;;;-146.10;100.00
12763;BME280;6445;52.490;13.378;2023-06-26T05:29:26;24475.53;;;-146.10;100.00
12763;BME280;6445;52.490;13.378;2023-06-26T05:31:51;22217.50;;;-146.10;100.00
12763;BME280;6445;52.490;13.378;2023-06-26T05:34:19;18915.22;;;-146.10;100.00
12763;BME280;6445;52.490;13.378;2023-06-26T05:36:46;18661.31;;;-146.10;100.00
12763;BME280;6445;52.490;13.378;2023-06-26T05:39:13;23575.75;;;-146.10;100.00
12763;BME280;6445;52.490;13.378;2023-06-26T05:41:39;17392.06;;;-146.10;100.00
12763;BME280;6445;52.490;13.378;2023-06-26T05:44:04;18153.56;;;-146.10;100.00
12763;BME280;6445;52.490;13.378;2023-06-26T05:46:29;28526.19;;;-146.10;100.00
12763;BME280;6445;52.490;13.378;2023-06-26T05:48:55;30248.69;;;-146.10;100.00
12763;BME280;6445;52.490;13.378;2023-06-26T05:51:20;39464.78;;;-146.10;100.00
12763;BME280;6445;52.490;13.378;2023-06-26T05:53:46;47201.69;;;-146.10;97.74
12763;BME280;6445;52.490;13.378;2023-06-26T05:56:12;52574.16;;;-146.10;84.18
12763;BME280;6445;52.490;13.378;2023-06-26T05:58:37;53174.44;;;-146.10;74.00
12763;BME280;6445;52.490;13.378;2023-06-26T06:01:03;53180.44;;;-146.10;65.68
12763;BME280;6445;52.490;13.378;2023-06-26T06:03:28;53158.44;;;-146.10;62.15
12763;BME280;6445;52.490;13.378;2023-06-26T06:05:53;53178.44;;;-146.10;60.48
12763;BME280;6445;52.490;13.378;2023-06-26T06:08:18;53228.47;;;-146.10;56.79
12763;BME280;6445;52.490;13.378;2023-06-26T06:10:44;53176.44;;;-146.10;56.79
12763;BME280;6445;52.490;13.378;2023-06-26T06:13:09;53140.41;;;-146.10;55.42
12763;BME280;6445;52.490;13.378;2023-06-26T06:15:34;53022.34;;;-146.10;58.75
12763;BME280;6445;52.490;13.378;2023-06-26T06:17:59;53178.44;;;-146.10;54.43
12763;BME280;6445;52.490;13.378;2023-06-26T06:20:25;53280.50;;;-146.10;51.46
12763;BME280;6445;52.490;13.378;2023-06-26T06:22:50;53390.56;;;-146.10;48.71
12763;BME280;6445;52.490;13.378;2023-06-26T06:25:15;53318.50;;;-146.10;45.92
12763;BME280;6445;52.490;13.378;2023-06-26T06:27:41;53260.47;;;-146.10;48.05
12763;BME280;6445;52.490;13.378;2023-06-26T06:30:06;53336.53;;;-146.10;44.19
12763;BME280;6445;52.490;13.378;2023-06-26T06:32:32;53362.53;;;-146.10;42.15
12763;BME280;6445;52.490;13.378;2023-06-26T06:34:57;53392.56;;;-146.10;42.88
12763;BME280;6445;52.490;13.378;2023-06-26T06:37:22;53254.47;;;-146.10;41.62
12763;BME280;6445;52.490;13.378;2023-06-26T06:39:47;53378.53;;;-146.10;40.37
12763;BME280;6445;52.490;13.378;2023-06-26T06:42:13;53218.47;;;-146.10;42.57
12763;BME280;6445;52.490;13.378;2023-06-26T06:44:38;53180.44;;;-146.10;43.69
12763;BME280;6445;52.490;13.378;2023-06-26T06:47:03;53282.50;;;-146.10;43.72
12763;BME280;6445;52.490;13.378;2023-06-26T06:49:29;53372.53;;;-146.10;40.21
12763;BME280;6445;52.490;13.378;2023-06-26T06:51:54;53412.56;;;-146.10;38.80
12763;BME280;6445;52.490;13.378;2023-06-26T06:54:19;53372.53;;;-146.10;39.72
12763;BME280;6445;52.490;13.378;2023-06-26T06:56:44;53360.53;;;-146.10;38.90
12763;BME280;6445;52.490;13.378;2023-06-26T06:59:10;53352.53;;;-146.10;39.94
12763;BME280;6445;52.490;13.378;2023-06-26T07:01:35;53438.59;;;-146.10;38.76
12763;BME280;6445;52.490;13.378;2023-06-26T07:04:00;53636.72;;;-146.10;36.78
12763;BME280;6445;52.490;13.378;2023-06-26T07:06:25;53494.63;;;-146.10;36.82
12763;BME280;6445;52.490;13.378;2023-06-26T07:08:51;53818.84;;;-146.10;34.28
12763;BME280;6445;52.490;13.378;2023-06-26T07:11:16;53960.94;;;-146.10;33.24
12763;BME280;6445;52.490;13.378;2023-06-26T07:13:41;53800.81;;;-146.10;34.88
12763;BME280;6445;52.490;13.378;2023-06-26T07:16:07;53964.94;;;-146.10;32.60
12763;BME280;6445;52.490;13.378;2023-06-26T07:18:37;53744.78;;;-146.10;34.30
12763;BME280;6445;52.490;13.378;2023-06-26T07:21:02;53948.94;;;-146.10;33.79
12763;BME280;6445;52.490;13.378;2023-06-26T07:23:27;54121.06;;;-146.10;31.98
12763;BME280;6445;52.490;13.378;2023-06-26T07:25:53;54071.03;;;-146.10;31.75
12763;BME280;6445;52.490;13.378;2023-06-26T07:28:18;53992.97;;;-146.10;31.88
12763;BME280;6445;52.490;13.378;2023-06-26T07:30:43;53930.91;;;-146.10;31.64
12763;BME280;6445;52.490;13.378;2023-06-26T07:33:08;53758.78;;;-146.10;32.71
12763;BME280;6445;52.490;13.378;2023-06-26T07:35:34;53780.81;;;-146.10;33.52
12763;BME280;6445;52.490;13.378;2023-06-26T07:37:59;53844.84;;;-146.10;33.84
12763;BME280;6445;52.490;13.378;2023-06-26T07:40:25;54041.00;;;-146.10;32.17
12763;BME280;6445;52.490;13.378;2023-06-26T07:42:50;54087.03;;;-146.10;31.88
12763;BME280;6445;52.490;13.378;2023-06-26T07:45:16;54043.00;;;-146.10;31.81
12763;BME280;6445;52.490;13.378;2023-06-26T07:47:41;53916.91;;;-146.10;32.33
12763;BME280;6445;52.490;13.378;2023-06-26T07:50:07;53998.97;;;-146.10;32.24
12763;BME280;6445;52.490;13.378;2023-06-26T07:52:32;54205.13;;;-146.10;30.86
12763;BME280;6445;52.490;13.378;2023-06-26T07:54:58;54235.16;;;-146.10;29.67
12763;BME280;6445;52.490;13.378;2023-06-26T07:57:23;54167.09;;;-146.10;30.30
12763;BME280;6445;52.490;13.378;2023-06-26T07:59:49;53968.94;;;-146.10;30.17
12763;BME280;6445;52.490;13.378;2023-06-26T08:02:14;53996.97;;;-146.10;29.77
12763;BME280;6445;52.490;13.378;2023-06-26T08:04:40;54051.00;;;-146.10;29.83
12763;BME280;6445;52.490;13.378;2023-06-26T08:07:05;54137.06;;;-146.10;29.25
12763;BME280;6445;52.490;13.378;2023-06-26T08:09:31;54273.19;;;-146.10;28.85
12763;BME280;6445;52.490;13.378;2023-06-26T08:11:56;54473.34;;;-146.10;27.58
12763;BME280;6445;52.490;13.378;2023-06-26T08:14:22;54265.19;;;-146.10;27.49
12763;BME280;6445;52.490;13.378;2023-06-26T08:16:48;54387.28;;;-146.10;27.89
12763;BME280;6445;52.490;13.378;2023-06-26T08:19:14;54141.06;;;-146.10;28.20
12763;BME280;6445;52.490;13.378;2023-06-26T08:21:41;54439.31;;;-146.10;27.03
12763;BME280;6445;52.490;13.378;2023-06-26T08:24:06;54233.16;;;-146.10;27.37
12763;BME280;6445;52.490;13.378;2023-06-26T08:26:31;54195.13;;;-146.10;27.53
12763;BME280;6445;52.490;13.378;2023-06-26T08:28:57;54309.22;;;-146.10;27.33
12763;BME280;6445;52.490;13.378;2023-06-26T08:31:22;54449.34;;;-146.10;27.01
12763;BME280;6445;52.490;13.378;2023-06-26T08:33:47;53790.81;;;-146.10;29.17
12763;BME280;6445;52.490;13.378;2023-06-26T08:36:13;54039.00;;;-146.10;28.29
12763;BME280;6445;52.490;13.378;2023-06-26T08:38:38;54103.03;;;-146.10;27.61
12763;BME280;6445;52.490;13.378;2023-06-26T08:41:05;54073.03;;;-146.10;27.71
12763;BME280;6445;52.490;13.378;2023-06-26T08:43:31;54325.22;;;-146.10;27.05
12763;BME280;6445;52.490;13.378;2023-06-26T08:45:57;54193.13;;;-146.10;27.37
12763;BME280;6445;52.490;13.378;2023-06-26T08:48:22;54345.25;;;-146.10;26.58
12763;BME280;6445;52.490;13.378;2023-06-26T08:50:48;54421.31;;;-146.10;25.90
12763;BME280;6445;52.490;13.378;2023-06-26T08:53:23;54435.31;;;-146.10;26.86
12763;BME280;6445;52.490;13.378;2023-06-26T08:55:54;54387.28;;;-146.10;26.53
12763;BME280;6445;52.490;13.378;2023-06-26T08:58:22;53812.84;;;-146.10;28.92
12763;BME280;6445;52.490;13.378;2023-06-26T09:00:47;53962.94;;;-146.10;28.63
12763;BME280;6445;52.490;13.378;2023-06-26T09:03:14;53744.78;;;-146.10;29.46
12763;BME280;6445;52.490;13.378;2023-06-26T09:05:40;54014.97;;;-146.10;28.30
12763;BME280;6445;52.490;13.378;2023-06-26T09:08:06;54093.03;;;-146.10;27.27
12763;BME280;6445;52.490;13.378;2023-06-26T09:10:31;53808.81;;;-146.10;29.04
12763;BME280;6445;52.490;13.378;2023-06-26T09:12:57;54157.09;;;-146.10;27.48
12763;BME280;6445;52.490;13.378;2023-06-26T09:15:23;54012.97;;;-146.10;28.04
12763;BME280;6445;52.490;13.378;2023-06-26T09:17:48;54199.13;;;-146.10;27.11
12763;BME280;6445;52.490;13.378;2023-06-26T09:20:14;54033.00;;;-146.10;27.99
12763;BME280;6445;52.490;13.378;2023-06-26T09:22:41;54119.06;;;-146.10;27.84
12763;BME280;6445;52.490;13.378;2023-06-26T09:25:08;54133.06;;;-146.10;27.58
12763;BME280;6445;52.490;13.378;2023-06-26T09:27:35;54041.00;;;-146.10;28.02
12763;BME280;6445;52.490;13.378;2023-06-26T09:30:02;53932.91;;;-146.10;28.59
12763;BME280;6445;52.490;13.378;2023-06-26T09:32:27;54047.00;;;-146.10;28.07
12763;BME280;6445;52.490;13.378;2023-06-26T09:34:53;53954.94;;;-146.10;28.24
12763;BME280;6445;52.490;13.378;2023-06-26T09:37:20;53976.94;;;-146.10;28.92
12763;BME280;6445;52.490;13.378;2023-06-26T09:39:46;53998.97;;;-146.10;28.61
12763;BME280;6445;52.490;13.378;2023-06-26T09:42:14;53892.88;;;-146.10;28.21
12763;BME280;6445;52.490;13.378;2023-06-26T09:44:48;54006.97;;;-146.10;27.13
12763;BME280;6445;52.490;13.378;2023-06-26T09:47:19;53884.88;;;-146.10;27.84
12763;BME280;6445;52.490;13.378;2023-06-26T09:49:44;53766.78;;;-146.10;29.12
12763;BME280;6445;52.490;13.378;2023-06-26T09:52:14;53712.75;;;-146.10;28.96
12763;BME280;6445;52.490;13.378;2023-06-26T09:54:40;53588.69;;;-146.10;29.13
12763;BME280;6445;52.490;13.378;2023-06-26T09:57:09;53398.56;;;-146.10;30.29
12763;BME280;6445;52.490;13.378;2023-06-26T09:59:35;53528.63;;;-146.10;29.97
12763;BME280;6445;52.490;13.378;2023-06-26T10:02:01;53542.66;;;-146.10;30.28
12763;BME280;6445;52.490;13.378;2023-06-26T10:04:26;53404.56;;;-146.10;31.30
12763;BME280;6445;52.490;13.378;2023-06-26T10:06:56;53450.59;;;-146.10;30.88
12763;BME280;6445;52.490;13.378;2023-06-26T10:09:22;53496.63;;;-146.10;31.55
12763;BME280;6445;52.490;13.378;2023-06-26T10:11:53;53500.63;;;-146.10;31.25
12763;BME280;6445;52.490;13.378;2023-06-26T10:14:21;53534.66;;;-146.10;30.91
12763;BME280;6445;52.490;13.378;2023-06-26T10:16:48;53572.66;;;-146.10;30.51
12763;BME280;6445;52.490;13.378;2023-06-26T10:19:16;53518.63;;;-146.10;31.08
12763;BME280;6445;52.490;13.378;2023-06-26T10:21:44;53644.72;;;-146.10;30.44
12763;BME280;6445;52.490;13.378;2023-06-26T10:24:11;53554.66;;;-146.10;30.68
12763;BME280;6445;52.490;13.378;2023-06-26T10:26:43;53324.50;;;-146.10;31.65
12763;BME280;6445;52.490;13.378;2023-06-26T10:29:10;53430.59;;;-146.10;31.83
12763;BME280;6445;52.490;13.378;2023-06-26T10:31:37;53522.63;;;-146.10;31.23
12763;BME280;6445;52.490;13.378;2023-06-26T10:34:04;53548.66;;;-146.10;30.93
12763;BME280;6445;52.490;13.378;2023-06-26T10:36:31;53602.69;;;-146.10;31.00
12763;BME280;6445;52.490;13.378;2023-06-26T10:38:58;53456.59;;;-146.10;31.12
12763;BME280;6445;52.490;13.378;2023-06-26T10:41:24;53420.56;;;-146.10;32.00
12763;BME280;6445;52.490;13.378;2023-06-26T10:44:06;53394.56;;;-146.10;32.47
12763;BME280;6445;52.490;13.378;2023-06-26T10:49:17;53316.50;;;-146.10;32.41
12763;BME280;6445;52.490;13.378;2023-06-26T10:51:47;53288.50;;;-146.10;32.69
12763;BME280;6445;52.490;13.378;2023-06-26T10:54:15;53368.53;;;-146.10;32.37
12763;BME280;6445;52.490;13.378;2023-06-26T10:56:48;53384.56;;;-146.10;31.94
12763;BME280;6445;52.490;13.378;2023-06-26T10:59:18;53356.53;;;-146.10;32.24
12763;BME280;6445;52.490;13.378;2023-06-26T11:01:46;53456.59;;;-146.10;31.83
12763;BME280;6445;52.490;13.378;2023-06-26T11:04:13;53366.53;;;-146.10;32.33
12763;BME280;6445;52.490;13.378;2023-06-26T11:06:40;53364.53;;;-146.10;31.98
12763;BME280;6445;52.490;13.378;2023-06-26T11:09:08;53386.56;;;-146.10;32.52
12763;BME280;6445;52.490;13.378;2023-06-26T11:14:23;53278.50;;;-146.10;33.44
12763;BME280;6445;52.490;13.378;2023-06-26T11:16:49;53330.53;;;-146.10;33.69
12763;BME280;6445;52.490;13.378;2023-06-26T11:19:17;53272.50;;;-146.10;34.40
12763;BME280;6445;52.490;13.378;2023-06-26T11:21:43;53248.47;;;-146.10;33.97
12763;BME280;6445;52.490;13.378;2023-06-26T11:24:09;53180.44;;;-146.10;34.21
12763;BME280;6445;52.490;13.378;2023-06-26T11:26:39;53288.50;;;-146.10;33.71
12763;BME280;6445;52.490;13.378;2023-06-26T11:29:04;53334.53;;;-146.10;33.41
12763;BME280;6445;52.490;13.378;2023-06-26T11:31:31;53250.47;;;-146.10;32.94
12763;BME280;6445;52.490;13.378;2023-06-26T11:34:01;53296.50;;;-146.10;33.26
12763;BME280;6445;52.490;13.378;2023-06-26T11:36:28;53326.53;;;-146.10;33.43
12763;BME280;6445;52.490;13.378;2023-06-26T11:39:02;53298.50;;;-146.10;32.40
12763;BME280;6445;52.490;13.378;2023-06-26T11:41:37;53274.50;;;-146.10;33.76
12763;BME280;6445;52.490;13.378;2023-06-26T11:44:07;53264.47;;;-146.10;33.69
12763;BME280;6445;52.490;13.378;2023-06-26T11:46:37;53380.56;;;-146.10;33.26
12763;BME280;6445;52.490;13.378;2023-06-26T11:49:03;53364.53;;;-146.10;33.55
12763;BME280;6445;52.490;13.378;2023-06-26T11:51:29;53356.53;;;-146.10;32.09
12763;BME280;6445;52.490;13.378;2023-06-26T11:53:54;53360.53;;;-146.10;33.58
12763;BME280;6445;52.490;13.378;2023-06-26T11:56:20;53274.50;;;-146.10;32.76
12763;BME280;6445;52.490;13.378;2023-06-26T11:58:57;53420.56;;;-146.10;31.62
12763;BME280;6445;52.490;13.378;2023-06-26T12:01:25;53408.56;;;-146.10;32.81
12763;BME280;6445;52.490;13.378;2023-06-26T12:03:53;53438.59;;;-146.10;32.46
12763;BME280;6445;52.490;13.378;2023-06-26T12:06:18;53410.56;;;-146.10;32.71
12763;BME280;6445;52.490;13.378;2023-06-26T12:08:43;53420.56;;;-146.10;32.13
12763;BME280;6445;52.490;13.378;2023-06-26T12:11:09;53454.59;;;-146.10;31.87
12763;BME280;6445;52.490;13.378;2023-06-26T12:13:35;53378.53;;;-146.10;32.28
12763;BME280;6445;52.490;13.378;2023-06-26T12:16:00;53510.63;;;-146.10;31.99
12763;BME280;6445;52.490;13.378;2023-06-26T12:18:25;53518.63;;;-146.10;31.54
12763;BME280;6445;52.490;13.378;2023-06-26T12:20:57;53476.59;;;-146.10;30.51
12763;BME280;6445;52.490;13.378;2023-06-26T12:23:23;53572.66;;;-146.10;29.97
12763;BME280;6445;52.490;13.378;2023-06-26T12:25:48;53486.63;;;-146.10;31.03
12763;BME280;6445;52.490;13.378;2023-06-26T12:28:17;53548.66;;;-146.10;30.85
12763;BME280;6445;52.490;13.378;2023-06-26T12:30:47;53524.63;;;-146.10;30.68
12763;BME280;6445;52.490;13.378;2023-06-26T12:33:14;53568.66;;;-146.10;30.27
12763;BME280;6445;52.490;13.378;2023-06-26T12:35:39;53622.69;;;-146.10;29.78
12763;BME280;6445;52.490;13.378;2023-06-26T12:38:07;53622.69;;;-146.10;30.93